sensor_id;sensor_type;location;lat;lon;timestamp;pressure;altitude;pressure_sealevel;temperature;humidity
80500;BME280;69823;54.120;-4.710;2023-09-08T00:01:54;100046.99;;;29.58;25.48
80500;BME280;69823;54.120;-4.710;2023-09-08T00:04:20;100047.92;;;29.59;25.51
80500;BME280;69823;54.120;-4.710;2023-09-08T00:06:46;100049.47;;;29.69;25.43
80500;BME280;69823;54.120;-4.710;2023-09-08T00:09:11;100048.44;;;29.74;25.38
80500;BME280;69823;54.120;-4.710;2023-09-08T00:11:37;100047.09;;;29.64;25.47
80500;BME280;69823;54.120;-4.710;2023-09-08T00:14:02;100042.82;;;29.60;25.52
80500;BME280;69823;54.120;-4.710;2023-09-08T00:16:27;100043.61;;;29.63;25.50
80500;BME280;69823;54.120;-4.710;2023-09-08T00:18:53;100041.22;;;29.66;25.48
80500;BME280;69823;54.120;-4.710;2023-09-08T00:21:19;100044.00;;;29.67;25.46
80500;BME280;69823;54.120;-4.710;2023-09-08T00:23:44;100044.27;;;29.66;25.49
80500;BME280;69823;54.120;-4.710;2023-09-08T00:26:10;100042.91;;;29.63;25.51
80500;BME280;69823;54.120;-4.710;2023-09-08T00:28:36;100043.62;;;29.42;25.48
80500;BME280;69823;54.120;-4.710;2023-09-08T00:31:01;100043.22;;;29.22;25.46
80500;BME280;69823;54.120;-4.710;2023-09-08T00:33:27;100044.83;;;29.49;25.44
80500;BME280;69823;54.120;-4.710;2023-09-08T00:35:52;100046.09;;;29.69;25.47
80500;BME280;69823;54.120;-4.710;2023-09-08T00:38:18;100043.70;;;29.62;25.52
80500;BME280;69823;54.120;-4.710;2023-09-08T00:40:44;100041.01;;;29.34;25.55
80500;BME280;69823;54.120;-4.710;2023-09-08T00:43:09;100039.56;;;29.52;25.59
80500;BME280;69823;54.120;-4.710;2023-09-08T00:45:38;100040.56;;;29.29;25.62
80500;BME280;69823;54.120;-4.710;2023-09-08T00:48:00;100042.05;;;29.56;25.58
80500;BME280;69823;54.120;-4.710;2023-09-08T00:50:26;100042.19;;;29.11;25.57
80500;BME280;69823;54.120;-4.710;2023-09-08T00:52:51;100044.82;;;29.55;25.60
80500;BME280;69823;54.120;-4.710;2023-09-08T00:55:17;100045.35;;;29.60;25.55
80500;BME280;69823;54.120;-4.710;2023-09-08T00:57:43;100046.08;;;29.56;25.58
80500;BME280;69823;54.120;-4.710;2023-09-08T01:00:09;100045.38;;;29.04;25.64
80500;BME280;69823;54.120;-4.710;2023-09-08T01:02:34;100042.98;;;29.46;25.69
80500;BME280;69823;54.120;-4.710;2023-09-08T01:04:59;100039.51;;;29.47;25.69
80500;BME280;69823;54.120;-4.710;2023-09-08T01:07:26;100038.35;;;29.46;25.72
80500;BME280;69823;54.120;-4.710;2023-09-08T01:09:50;100037.09;;;29.48;25.70
80500;BME280;69823;54.120;-4.710;2023-09-08T01:12:16;100038.48;;;29.52;25.66
80500;BME280;69823;54.120;-4.710;2023-09-08T01:14:42;100037.85;;;29.51;25.67
80500;BME280;69823;54.120;-4.710;2023-09-08T01:17:08;100033.72;;;29.21;25.74
80500;BME280;69823;54.120;-4.710;2023-09-08T01:19:33;100035.29;;;29.53;25.65
80500;BME280;69823;54.120;-4.710;2023-09-08T01:22:11;100036.67;;;29.31;25.65
80500;BME280;69823;54.120;-4.710;2023-09-08T01:24:38;100032.40;;;29.16;25.78
80500;BME280;69823;54.120;-4.710;2023-09-08T01:26:50;100034.85;;;29.41;25.77
80500;BME280;69823;54.120;-4.710;2023-09-08T01:29:16;100033.93;;;29.38;25.80
80500;BME280;69823;54.120;-4.710;2023-09-08T01:31:41;100027.23;;;29.32;25.88
80500;BME280;69823;54.120;-4.710;2023-09-08T01:34:08;100019.73;;;29.38;25.81
80500;BME280;69823;54.120;-4.710;2023-09-08T01:36:33;100016.06;;;29.44;25.76
80500;BME280;69823;54.120;-4.710;2023-09-08T01:38:58;100017.54;;;29.44;25.76
80500;BME280;69823;54.120;-4.710;2023-09-08T01:41:23;100018.70;;;29.18;25.78
80500;BME280;69823;54.120;-4.710;2023-09-08T01:43:49;100018.20;;;29.42;25.78
80500;BME280;69823;54.120;-4.710;2023-09-08T01:46:14;100022.24;;;29.45;25.75
80500;BME280;69823;54.120;-4.710;2023-09-08T01:48:40;100025.54;;;29.44;25.75
80500;BME280;69823;54.120;-4.710;2023-09-08T01:51:05;100030.56;;;29.49;25.70
80500;BME280;69823;54.120;-4.710;2023-09-08T01:53:31;100032.96;;;29.49;25.71
80500;BME280;69823;54.120;-4.710;2023-09-08T01:55:56;100030.14;;;29.50;25.68
80500;BME280;69823;54.120;-4.710;2023-09-08T01:58:22;100030.59;;;29.44;25.74
80500;BME280;69823;54.120;-4.710;2023-09-08T02:00:49;100033.16;;;29.44;25.73
80500;BME280;69823;54.120;-4.710;2023-09-08T02:03:13;100033.20;;;29.40;25.76
80500;BME280;69823;54.120;-4.710;2023-09-08T02:05:39;100039.93;;;29.42;25.75
80500;BME280;69823;54.120;-4.710;2023-09-08T02:08:05;100041.85;;;29.61;25.80
80500;BME280;69823;54.120;-4.710;2023-09-08T02:10:30;100039.65;;;29.46;25.72
80500;BME280;69823;54.120;-4.710;2023-09-08T02:12:55;100038.13;;;29.51;25.67
80500;BME280;69823;54.120;-4.710;2023-09-08T02:15:21;100035.18;;;29.42;25.74
80500;BME280;69823;54.120;-4.710;2023-09-08T02:17:52;100033.82;;;29.41;25.78
80500;BME280;69823;54.120;-4.710;2023-09-08T02:20:12;100028.74;;;29.39;25.77
80500;BME280;69823;54.120;-4.710;2023-09-08T02:22:38;100020.51;;;29.57;25.85
80500;BME280;69823;54.120;-4.710;2023-09-08T02:25:04;100015.56;;;29.28;25.87
80500;BME280;69823;54.120;-4.710;2023-09-08T02:27:28;100017.66;;;29.33;25.84
80500;BME280;69823;54.120;-4.710;2023-09-08T02:29:54;100016.11;;;29.09;25.84
80500;BME280;69823;54.120;-4.710;2023-09-08T02:32:19;100016.42;;;29.31;25.85
80500;BME280;69823;54.120;-4.710;2023-09-08T02:34:44;100016.88;;;29.08;25.82
80500;BME280;69823;54.120;-4.710;2023-09-08T02:37:10;100016.54;;;29.24;25.90
80500;BME280;69823;54.120;-4.710;2023-09-08T02:39:35;100016.31;;;29.20;25.95
80500;BME280;69823;54.120;-4.710;2023-09-08T02:42:01;100007.14;;;29.16;25.96
80500;BME280;69823;54.120;-4.710;2023-09-08T02:44:26;100000.81;;;29.14;25.96
80500;BME280;69823;54.120;-4.710;2023-09-08T02:46:52;99997.72;;;29.06;26.04
80500;BME280;69823;54.120;-4.710;2023-09-08T02:49:18;99995.46;;;29.10;25.99
80500;BME280;69823;54.120;-4.710;2023-09-08T02:51:43;99991.75;;;29.06;26.02
80500;BME280;69823;54.120;-4.710;2023-09-08T02:54:09;99991.31;;;29.10;25.98
80500;BME280;69823;54.120;-4.710;2023-09-08T02:56:35;99993.45;;;29.12;25.97
80500;BME280;69823;54.120;-4.710;2023-09-08T02:59:00;99992.31;;;29.15;25.96
80500;BME280;69823;54.120;-4.710;2023-09-08T03:01:25;99988.22;;;28.91;25.94
80500;BME280;69823;54.120;-4.710;2023-09-08T03:03:50;99983.62;;;29.06;26.01
80500;BME280;69823;54.120;-4.710;2023-09-08T03:06:19;99982.12;;;28.86;25.98
80500;BME280;69823;54.120;-4.710;2023-09-08T03:08:41;99982.76;;;29.13;25.96
80500;BME280;69823;54.120;-4.710;2023-09-08T03:11:08;99981.76;;;29.14;25.96
80500;BME280;69823;54.120;-4.710;2023-09-08T03:13:33;99984.02;;;29.21;25.91
80500;BME280;69823;54.120;-4.710;2023-09-08T03:16:02;99991.06;;;29.24;25.87
80500;BME280;69823;54.120;-4.710;2023-09-08T03:18:24;99996.19;;;29.25;25.87
80500;BME280;69823;54.120;-4.710;2023-09-08T03:20:50;99997.10;;;29.37;25.77
80500;BME280;69823;54.120;-4.710;2023-09-08T03:23:15;99994.43;;;29.58;25.79
80500;BME280;69823;54.120;-4.710;2023-09-08T03:25:40;99991.44;;;29.25;25.87
80500;BME280;69823;54.120;-4.710;2023-09-08T03:28:06;99993.50;;;29.27;25.87
80500;BME280;69823;54.120;-4.710;2023-09-08T03:30:32;100000.75;;;29.19;25.74
80500;BME280;69823;54.120;-4.710;2023-09-08T03:32:57;100001.95;;;29.48;25.69
80500;BME280;69823;54.120;-4.710;2023-09-08T03:35:23;100001.90;;;29.48;25.66
80500;BME280;69823;54.120;-4.710;2023-09-08T03:37:49;100001.33;;;29.49;25.67
80500;BME280;69823;54.120;-4.710;2023-09-08T03:40:14;99996.84;;;29.51;25.64
80500;BME280;69823;54.120;-4.710;2023-09-08T03:42:40;99993.88;;;29.48;25.67
80500;BME280;69823;54.120;-4.710;2023-09-08T03:45:05;99989.02;;;29.29;25.62
80500;BME280;69823;54.120;-4.710;2023-09-08T03:47:30;99983.98;;;29.21;25.69
80500;BME280;69823;54.120;-4.710;2023-09-08T03:49:56;99981.12;;;29.29;25.64
80500;BME280;69823;54.120;-4.710;2023-09-08T03:52:22;99977.68;;;29.45;25.69
80500;BME280;69823;54.120;-4.710;2023-09-08T03:54:47;99975.17;;;29.37;25.76
80500;BME280;69823;54.120;-4.710;2023-09-08T03:57:13;99973.09;;;29.36;25.76
80500;BME280;69823;54.120;-4.710;2023-09-08T03:59:38;99973.59;;;29.29;25.82
80500;BME280;69823;54.120;-4.710;2023-09-08T04:02:04;99976.11;;;29.23;25.86
80500;BME280;69823;54.120;-4.710;2023-09-08T04:04:29;99979.99;;;29.24;25.87
80500;BME280;69823;54.120;-4.710;2023-09-08T04:06:55;99979.67;;;29.36;25.76
80500;BME280;69823;54.120;-4.710;2023-09-08T04:09:20;99978.86;;;29.41;25.72
80500;BME280;69823;54.120;-4.710;2023-09-08T04:11:46;99982.10;;;29.27;25.82
80500;BME280;69823;54.120;-4.710;2023-09-08T04:14:12;99985.24;;;29.31;25.80
80500;BME280;69823;54.120;-4.710;2023-09-08T04:16:37;99987.91;;;29.28;25.82
80500;BME280;69823;54.120;-4.710;2023-09-08T04:19:03;99988.29;;;29.35;25.77
80500;BME280;69823;54.120;-4.710;2023-09-08T04:21:29;99990.37;;;29.29;25.63
80500;BME280;69823;54.120;-4.710;2023-09-08T04:23:54;99993.29;;;29.58;25.58
80500;BME280;69823;54.120;-4.710;2023-09-08T04:26:20;99999.74;;;29.64;25.53
80500;BME280;69823;54.120;-4.710;2023-09-08T04:28:46;100000.53;;;29.65;25.49
80500;BME280;69823;54.120;-4.710;2023-09-08T04:31:11;100001.85;;;29.71;25.46
80500;BME280;69823;54.120;-4.710;2023-09-08T04:33:36;99998.53;;;29.67;25.49
80500;BME280;69823;54.120;-4.710;2023-09-08T04:36:02;99997.82;;;29.70;25.46
80500;BME280;69823;54.120;-4.710;2023-09-08T04:38:27;99998.93;;;29.54;25.39
80500;BME280;69823;54.120;-4.710;2023-09-08T04:40:53;99996.35;;;29.77;25.39
80500;BME280;69823;54.120;-4.710;2023-09-08T04:43:18;99992.50;;;29.55;25.38
80500;BME280;69823;54.120;-4.710;2023-09-08T04:45:45;99988.31;;;29.82;25.35
80500;BME280;69823;54.120;-4.710;2023-09-08T04:48:09;99989.66;;;29.82;25.35
80500;BME280;69823;54.120;-4.710;2023-09-08T04:50:35;99986.38;;;29.61;25.52
80500;BME280;69823;54.120;-4.710;2023-09-08T04:53:00;99983.03;;;29.25;25.62
80500;BME280;69823;54.120;-4.710;2023-09-08T04:55:26;99978.23;;;29.16;25.68
80500;BME280;69823;54.120;-4.710;2023-09-08T04:57:52;99977.66;;;29.57;25.73
80500;BME280;69823;54.120;-4.710;2023-09-08T05:00:18;99973.25;;;29.27;25.79
80500;BME280;69823;54.120;-4.710;2023-09-08T05:02:43;99972.58;;;29.17;25.88
80500;BME280;69823;54.120;-4.710;2023-09-08T05:05:09;99975.41;;;29.23;25.84
80500;BME280;69823;54.120;-4.710;2023-09-08T05:07:34;99981.30;;;29.27;25.81
80500;BME280;69823;54.120;-4.710;2023-09-08T05:10:00;99983.31;;;29.28;25.81
80500;BME280;69823;54.120;-4.710;2023-09-08T05:12:25;99985.36;;;29.44;25.67
80500;BME280;69823;54.120;-4.710;2023-09-08T05:14:51;99984.43;;;29.51;25.61
80500;BME280;69823;54.120;-4.710;2023-09-08T05:17:16;99978.09;;;29.59;25.55
80500;BME280;69823;54.120;-4.710;2023-09-08T05:19:41;99973.06;;;29.64;25.49
80500;BME280;69823;54.120;-4.710;2023-09-08T05:22:07;99972.30;;;29.68;25.46
80500;BME280;69823;54.120;-4.710;2023-09-08T05:24:32;99973.48;;;29.70;25.42
80500;BME280;69823;54.120;-4.710;2023-09-08T05:26:58;99979.64;;;29.71;25.42
80500;BME280;69823;54.120;-4.710;2023-09-08T05:29:23;99983.71;;;29.46;25.43
80500;BME280;69823;54.120;-4.710;2023-09-08T05:31:49;99986.94;;;29.71;25.42
80500;BME280;69823;54.120;-4.710;2023-09-08T05:34:14;99986.69;;;29.76;25.39
80500;BME280;69823;54.120;-4.710;2023-09-08T05:36:40;99985.64;;;29.76;25.39
80500;BME280;69823;54.120;-4.710;2023-09-08T05:39:06;99989.69;;;29.77;25.38
80500;BME280;69823;54.120;-4.710;2023-09-08T05:41:31;99994.01;;;29.74;25.41
80500;BME280;69823;54.120;-4.710;2023-09-08T05:43:57;99997.86;;;29.74;25.41
80500;BME280;69823;54.120;-4.710;2023-09-08T05:46:23;99994.98;;;29.74;25.40
80500;BME280;69823;54.120;-4.710;2023-09-08T05:48:48;99995.27;;;29.77;25.37
80500;BME280;69823;54.120;-4.710;2023-09-08T05:51:14;100000.95;;;29.59;25.34
80500;BME280;69823;54.120;-4.710;2023-09-08T05:53:39;100003.42;;;29.59;25.34
80500;BME280;69823;54.120;-4.710;2023-09-08T05:56:05;100003.10;;;29.83;25.31
80500;BME280;69823;54.120;-4.710;2023-09-08T05:58:30;100008.25;;;29.84;25.31
80500;BME280;69823;54.120;-4.710;2023-09-08T06:00:56;100013.54;;;29.86;25.30
80500;BME280;69823;54.120;-4.710;2023-09-08T06:03:22;100020.05;;;29.62;25.29
80500;BME280;69823;54.120;-4.710;2023-09-08T06:05:47;100021.52;;;29.86;25.31
80500;BME280;69823;54.120;-4.710;2023-09-08T06:08:13;100023.05;;;29.87;25.29
80500;BME280;69823;54.120;-4.710;2023-09-08T06:10:39;100021.91;;;29.88;25.27
80500;BME280;69823;54.120;-4.710;2023-09-08T06:13:04;100024.72;;;29.86;25.31
80500;BME280;69823;54.120;-4.710;2023-09-08T06:15:30;100021.86;;;29.84;25.31
80500;BME280;69823;54.120;-4.710;2023-09-08T06:17:55;100020.81;;;29.58;25.33
80500;BME280;69823;54.120;-4.710;2023-09-08T06:20:21;100017.41;;;29.60;25.33
80500;BME280;69823;54.120;-4.710;2023-09-08T06:22:47;100018.50;;;29.81;25.34
80500;BME280;69823;54.120;-4.710;2023-09-08T06:25:13;100022.17;;;29.80;25.36
80500;BME280;69823;54.120;-4.710;2023-09-08T06:27:38;100024.37;;;29.86;25.32
80500;BME280;69823;54.120;-4.710;2023-09-08T06:30:05;100019.91;;;29.88;25.29
80500;BME280;69823;54.120;-4.710;2023-09-08T06:32:29;100015.13;;;29.83;25.33
80500;BME280;69823;54.120;-4.710;2023-09-08T06:34:55;100010.81;;;29.72;25.42
80500;BME280;69823;54.120;-4.710;2023-09-08T06:37:20;100006.05;;;29.59;25.53
80500;BME280;69823;54.120;-4.710;2023-09-08T06:39:46;100004.35;;;28.99;25.63
80500;BME280;69823;54.120;-4.710;2023-09-08T06:42:11;100002.99;;;29.40;25.68
80500;BME280;69823;54.120;-4.710;2023-09-08T06:44:37;100005.26;;;29.39;25.69
80500;BME280;69823;54.120;-4.710;2023-09-08T06:47:03;100006.22;;;29.46;25.70
80500;BME280;69823;54.120;-4.710;2023-09-08T06:49:28;99999.10;;;29.24;25.66
80500;BME280;69823;54.120;-4.710;2023-09-08T06:51:54;99995.70;;;29.42;25.71
80500;BME280;69823;54.120;-4.710;2023-09-08T06:54:20;99994.93;;;29.39;25.72
80500;BME280;69823;54.120;-4.710;2023-09-08T06:56:45;99993.28;;;29.38;25.72
80500;BME280;69823;54.120;-4.710;2023-09-08T06:59:11;99999.73;;;29.33;25.76
80500;BME280;69823;54.120;-4.710;2023-09-08T07:01:36;100007.25;;;29.13;25.71
80500;BME280;69823;54.120;-4.710;2023-09-08T07:04:02;100009.27;;;29.46;25.64
80500;BME280;69823;54.120;-4.710;2023-09-08T07:06:27;100013.13;;;29.54;25.59
80500;BME280;69823;54.120;-4.710;2023-09-08T07:08:53;100011.48;;;29.59;25.54
80500;BME280;69823;54.120;-4.710;2023-09-08T07:11:19;100014.79;;;29.37;25.52
80500;BME280;69823;54.120;-4.710;2023-09-08T07:13:44;100018.17;;;29.09;25.57
80500;BME280;69823;54.120;-4.710;2023-09-08T07:16:10;100017.85;;;29.64;25.52
80500;BME280;69823;54.120;-4.710;2023-09-08T07:18:36;100023.30;;;29.58;25.57
80500;BME280;69823;54.120;-4.710;2023-09-08T07:21:01;100029.09;;;29.60;25.55
80500;BME280;69823;54.120;-4.710;2023-09-08T07:23:27;100036.25;;;29.66;25.50
80500;BME280;69823;54.120;-4.710;2023-09-08T07:25:53;100043.07;;;29.66;25.50
80500;BME280;69823;54.120;-4.710;2023-09-08T07:28:18;100045.01;;;29.69;25.49
80500;BME280;69823;54.120;-4.710;2023-09-08T07:30:44;100047.39;;;29.50;25.43
80500;BME280;69823;54.120;-4.710;2023-09-08T07:33:09;100049.30;;;29.77;25.42
80500;BME280;69823;54.120;-4.710;2023-09-08T07:35:36;100048.04;;;29.69;25.45
80500;BME280;69823;54.120;-4.710;2023-09-08T07:38:01;100041.43;;;29.62;25.52
80500;BME280;69823;54.120;-4.710;2023-09-08T07:40:27;100041.94;;;29.58;25.56
80500;BME280;69823;54.120;-4.710;2023-09-08T07:42:52;100045.64;;;29.39;25.52
80500;BME280;69823;54.120;-4.710;2023-09-08T07:45:17;100048.61;;;29.62;25.52
80500;BME280;69823;54.120;-4.710;2023-09-08T07:47:43;100048.77;;;29.60;25.54
80500;BME280;69823;54.120;-4.710;2023-09-08T07:50:19;100049.50;;;29.42;25.48
80500;BME280;69823;54.120;-4.710;2023-09-08T07:52:34;100046.31;;;29.63;25.51
80500;BME280;69823;54.120;-4.710;2023-09-08T07:55:00;100045.65;;;29.48;25.43
80500;BME280;69823;54.120;-4.710;2023-09-08T07:57:25;100043.15;;;29.67;25.47
80500;BME280;69823;54.120;-4.710;2023-09-08T07:59:51;100045.93;;;29.43;25.47
80500;BME280;69823;54.120;-4.710;2023-09-08T08:02:16;100046.19;;;29.64;25.47
80500;BME280;69823;54.120;-4.710;2023-09-08T08:04:42;100050.57;;;29.65;25.46
80500;BME280;69823;54.120;-4.710;2023-09-08T08:07:08;100053.46;;;29.61;25.49
80500;BME280;69823;54.120;-4.710;2023-09-08T08:09:33;100051.98;;;29.62;25.49
80500;BME280;69823;54.120;-4.710;2023-09-08T08:11:59;100051.71;;;29.57;25.52
80500;BME280;69823;54.120;-4.710;2023-09-08T08:14:25;100053.68;;;29.62;25.49
80500;BME280;69823;54.120;-4.710;2023-09-08T08:16:50;100052.76;;;29.57;25.52
80500;BME280;69823;54.120;-4.710;2023-09-08T08:19:16;100054.55;;;29.55;25.54
80500;BME280;69823;54.120;-4.710;2023-09-08T08:21:41;100056.11;;;29.57;25.53
80500;BME280;69823;54.120;-4.710;2023-09-08T08:24:07;100057.89;;;29.58;25.52
80500;BME280;69823;54.120;-4.710;2023-09-08T08:26:33;100059.67;;;29.59;25.51
80500;BME280;69823;54.120;-4.710;2023-09-08T08:28:59;100061.57;;;29.34;25.52
80500;BME280;69823;54.120;-4.710;2023-09-08T08:31:24;100062.32;;;29.34;25.51
80500;BME280;69823;54.120;-4.710;2023-09-08T08:33:50;100059.27;;;29.82;25.51
80500;BME280;69823;54.120;-4.710;2023-09-08T08:36:15;100062.49;;;29.57;25.54
80500;BME280;69823;54.120;-4.710;2023-09-08T08:38:41;100065.55;;;29.29;25.57
80500;BME280;69823;54.120;-4.710;2023-09-08T08:41:07;100066.22;;;29.58;25.54
80500;BME280;69823;54.120;-4.710;2023-09-08T08:43:33;100064.58;;;29.36;25.54
80500;BME280;69823;54.120;-4.710;2023-09-08T08:45:59;100061.28;;;29.55;25.59
80500;BME280;69823;54.120;-4.710;2023-09-08T08:48:25;100058.07;;;29.53;25.62
80500;BME280;69823;54.120;-4.710;2023-09-08T08:50:50;100053.96;;;29.46;25.67
80500;BME280;69823;54.120;-4.710;2023-09-08T08:53:17;100053.23;;;29.41;25.72
80500;BME280;69823;54.120;-4.710;2023-09-08T08:55:41;100055.05;;;29.22;25.70
80500;BME280;69823;54.120;-4.710;2023-09-08T08:58:06;100053.14;;;29.47;25.69
80500;BME280;69823;54.120;-4.710;2023-09-08T09:00:34;100055.33;;;29.27;25.67
80500;BME280;69823;54.120;-4.710;2023-09-08T09:02:58;100055.93;;;29.56;25.63
80500;BME280;69823;54.120;-4.710;2023-09-08T09:05:24;100056.26;;;29.28;25.67
80500;BME280;69823;54.120;-4.710;2023-09-08T09:07:50;100057.82;;;29.49;25.69
80500;BME280;69823;54.120;-4.710;2023-09-08T09:10:14;100058.16;;;29.47;25.72
80500;BME280;69823;54.120;-4.710;2023-09-08T09:12:40;100059.27;;;29.48;25.70
80500;BME280;69823;54.120;-4.710;2023-09-08T09:15:06;100059.32;;;29.53;25.67
80500;BME280;69823;54.120;-4.710;2023-09-08T09:17:32;100056.65;;;29.49;25.70
80500;BME280;69823;54.120;-4.710;2023-09-08T09:22:22;100050.60;;;29.50;25.70
80500;BME280;69823;54.120;-4.710;2023-09-08T09:24:48;100051.09;;;29.52;25.68
80500;BME280;69823;54.120;-4.710;2023-09-08T09:27:14;100055.64;;;29.48;25.71
80500;BME280;69823;54.120;-4.710;2023-09-08T09:29:44;100057.52;;;29.25;25.73
80500;BME280;69823;54.120;-4.710;2023-09-08T09:32:06;100057.02;;;29.48;25.73
80500;BME280;69823;54.120;-4.710;2023-09-08T09:34:31;100059.26;;;29.51;25.72
80500;BME280;69823;54.120;-4.710;2023-09-08T09:36:56;100058.73;;;29.45;25.75
80500;BME280;69823;54.120;-4.710;2023-09-08T09:39:23;100058.22;;;29.49;25.74
80500;BME280;69823;54.120;-4.710;2023-09-08T09:41:48;100056.71;;;29.46;25.77
80500;BME280;69823;54.120;-4.710;2023-09-08T09:44:14;100055.02;;;29.49;25.76
80500;BME280;69823;54.120;-4.710;2023-09-08T09:46:43;100052.21;;;28.99;25.76
80500;BME280;69823;54.120;-4.710;2023-09-08T09:49:05;100050.54;;;29.24;25.76
80500;BME280;69823;54.120;-4.710;2023-09-08T09:51:30;100049.60;;;29.55;25.71
80500;BME280;69823;54.120;-4.710;2023-09-08T09:53:56;100053.89;;;29.29;25.73
80500;BME280;69823;54.120;-4.710;2023-09-08T09:56:22;100052.25;;;29.26;25.75
80500;BME280;69823;54.120;-4.710;2023-09-08T09:58:48;100052.34;;;29.52;25.74
80500;BME280;69823;54.120;-4.710;2023-09-08T10:01:13;100049.72;;;29.49;25.78
80500;BME280;69823;54.120;-4.710;2023-09-08T10:03:39;100050.87;;;29.54;25.74
80500;BME280;69823;54.120;-4.710;2023-09-08T10:06:05;100049.30;;;29.55;25.74
80500;BME280;69823;54.120;-4.710;2023-09-08T10:08:30;100047.07;;;29.50;25.78
80500;BME280;69823;54.120;-4.710;2023-09-08T10:10:56;100043.97;;;29.49;25.80
80500;BME280;69823;54.120;-4.710;2023-09-08T10:13:26;100041.70;;;29.70;25.84
80500;BME280;69823;54.120;-4.710;2023-09-08T10:15:48;100040.81;;;29.24;25.82
80500;BME280;69823;54.120;-4.710;2023-09-08T10:18:14;100041.90;;;29.51;25.81
80500;BME280;69823;54.120;-4.710;2023-09-08T10:20:39;100043.33;;;29.52;25.79
80500;BME280;69823;54.120;-4.710;2023-09-08T10:23:08;100046.17;;;29.54;25.79
80500;BME280;69823;54.120;-4.710;2023-09-08T10:25:31;100048.96;;;29.53;25.79
80500;BME280;69823;54.120;-4.710;2023-09-08T10:27:55;100048.69;;;29.54;25.79
80500;BME280;69823;54.120;-4.710;2023-09-08T10:30:21;100047.10;;;29.08;25.78
80500;BME280;69823;54.120;-4.710;2023-09-08T10:32:47;100044.92;;;29.60;25.76
80500;BME280;69823;54.120;-4.710;2023-09-08T10:35:12;100047.28;;;29.62;25.74
80500;BME280;69823;54.120;-4.710;2023-09-08T10:37:37;100049.97;;;29.88;25.72
80500;BME280;69823;54.120;-4.710;2023-09-08T10:40:21;100050.58;;;29.73;25.66
80500;BME280;69823;54.120;-4.710;2023-09-08T10:42:29;100051.71;;;29.68;25.68
80500;BME280;69823;54.120;-4.710;2023-09-08T10:44:57;100048.70;;;29.76;25.64
80500;BME280;69823;54.120;-4.710;2023-09-08T10:47:22;100048.74;;;29.50;25.64
80500;BME280;69823;54.120;-4.710;2023-09-08T10:49:46;100049.05;;;29.76;25.64
80500;BME280;69823;54.120;-4.710;2023-09-08T10:52:12;100047.50;;;29.83;25.58
80500;BME280;69823;54.120;-4.710;2023-09-08T10:54:40;100046.13;;;29.61;25.56
80500;BME280;69823;54.120;-4.710;2023-09-08T10:57:06;100050.14;;;29.63;25.55
80500;BME280;69823;54.120;-4.710;2023-09-08T10:59:29;100049.48;;;29.64;25.54
80500;BME280;69823;54.120;-4.710;2023-09-08T11:01:54;100048.00;;;29.64;25.54
80500;BME280;69823;54.120;-4.710;2023-09-08T11:04:21;100047.00;;;29.88;25.55
80500;BME280;69823;54.120;-4.710;2023-09-08T11:06:45;100042.34;;;29.93;25.50
80500;BME280;69823;54.120;-4.710;2023-09-08T11:09:11;100046.76;;;29.96;25.48
80500;BME280;69823;54.120;-4.710;2023-09-08T11:11:37;100050.13;;;30.02;25.44
80500;BME280;69823;54.120;-4.710;2023-09-08T11:14:02;100052.09;;;29.80;25.44
80500;BME280;69823;54.120;-4.710;2023-09-08T11:16:28;100050.60;;;29.83;25.41
80500;BME280;69823;54.120;-4.710;2023-09-08T11:18:54;100047.22;;;30.11;25.37
80500;BME280;69823;54.120;-4.710;2023-09-08T11:21:19;100045.06;;;30.17;25.33
80500;BME280;69823;54.120;-4.710;2023-09-08T11:23:45;100047.08;;;30.20;25.31
80500;BME280;69823;54.120;-4.710;2023-09-08T11:26:12;100045.15;;;30.21;25.31
80500;BME280;69823;54.120;-4.710;2023-09-08T11:28:36;100044.60;;;30.03;25.26
80500;BME280;69823;54.120;-4.710;2023-09-08T11:31:02;100049.29;;;29.76;25.30
80500;BME280;69823;54.120;-4.710;2023-09-08T11:33:28;100047.70;;;30.03;25.27
80500;BME280;69823;54.120;-4.710;2023-09-08T11:35:54;100050.21;;;30.36;25.21
80500;BME280;69823;54.120;-4.710;2023-09-08T11:38:24;100051.45;;;29.94;25.17
80500;BME280;69823;54.120;-4.710;2023-09-08T11:40:44;100051.79;;;30.45;25.15
80500;BME280;69823;54.120;-4.710;2023-09-08T11:43:11;100051.25;;;30.02;25.11
80500;BME280;69823;54.120;-4.710;2023-09-08T11:45:37;100054.09;;;30.04;25.11
80500;BME280;69823;54.120;-4.710;2023-09-08T11:48:01;100054.08;;;30.09;25.06
80500;BME280;69823;54.120;-4.710;2023-09-08T11:50:27;100052.74;;;30.13;25.04
80500;BME280;69823;54.120;-4.710;2023-09-08T11:52:54;100053.20;;;30.17;25.02
80500;BME280;69823;54.120;-4.710;2023-09-08T11:55:20;100055.63;;;30.17;25.02
80500;BME280;69823;54.120;-4.710;2023-09-08T11:57:47;100056.40;;;30.39;25.05
80500;BME280;69823;54.120;-4.710;2023-09-08T12:00:11;100057.16;;;30.18;25.04
80500;BME280;69823;54.120;-4.710;2023-09-08T12:02:35;100057.21;;;30.19;25.05
80500;BME280;69823;54.120;-4.710;2023-09-08T12:05:01;100058.59;;;30.20;25.05
80500;BME280;69823;54.120;-4.710;2023-09-08T12:07:27;100058.07;;;30.21;25.05
80500;BME280;69823;54.120;-4.710;2023-09-08T12:09:52;100059.11;;;30.20;25.09
80500;BME280;69823;54.120;-4.710;2023-09-08T12:12:18;100061.72;;;30.22;25.08
80500;BME280;69823;54.120;-4.710;2023-09-08T12:14:44;100062.23;;;30.23;25.07
80500;BME280;69823;54.120;-4.710;2023-09-08T12:17:09;100062.69;;;30.25;25.06
80500;BME280;69823;54.120;-4.710;2023-09-08T12:19:35;100061.81;;;30.25;25.08
80500;BME280;69823;54.120;-4.710;2023-09-08T12:22:02;100064.09;;;30.28;25.07
80500;BME280;69823;54.120;-4.710;2023-09-08T12:26:51;100060.51;;;30.28;25.09
80500;BME280;69823;54.120;-4.710;2023-09-08T12:29:17;100058.47;;;30.78;25.10
80500;BME280;69823;54.120;-4.710;2023-09-08T12:31:43;100053.45;;;30.26;25.16
80500;BME280;69823;54.120;-4.710;2023-09-08T12:34:08;100051.28;;;30.32;25.13
80500;BME280;69823;54.120;-4.710;2023-09-08T12:36:35;100050.92;;;30.35;25.11
80500;BME280;69823;54.120;-4.710;2023-09-08T12:39:03;100051.25;;;30.06;25.19